Terminal Aerodrome Forecast
Issued by NWS Caribou, ME

Home | Current Version | Previous Version | Text Only | Print | Product List | Glossary On
Versions: 1 2 3 4 5 6 7 8 9 10 11 12 13 14 15
000
FTUS41 KCAR 070543
TAFBGR
TAF
KBGR 070543Z 0706/0806 18005KT P6SM SKC
     FM071600 18010G20KT P6SM BKN250
     FM072300 18012KT P6SM OVC006
     FM080100 18010KT 3SM BR BKN003
     FM080300 18010KT 3/4SM BR OVC002=

USA.gov is the U.S. government's official web portal to all federal, state and local government web resources and services.